AFL2101 UWKS-URML
Flight info
| Callsign | AFL2101 |
|---|---|
| Flight time | N/A |
| Altitude | 34000 |
| Route | RALED1D RALED P165 DAFOS/K0841F360 P135 UROBO R807 IDORI/K0841F350 A927 SL/K0841F360 A964 NOKLI/K0845F350 N72 GORNU B945 AMKOL AMKOL1J |
| Aircraft | A320/M-SDE3FGHIRWY/LB1 |
Departure
| Time | 2026-05-04 17:05 |
|---|---|
| Airport | Cheboksary Airport (UWKS) |
Arrival
| Time | N/A |
|---|---|
| Airport | Makhachkala Uytash International Airport (URML) |
| Time | Latitude | Longitude | Altitude | Speed | Heading |
|---|---|---|---|---|---|
| 2026-05-04 16:39 | 56.08326 | 47.32084 | 564 ft | 0 kts | 262° |
| 2026-05-04 16:53 | 56.08326 | 47.32088 | 564 ft | 2 kts | 262° |
| 2026-05-04 16:54 | 56.08329 | 47.32134 | 566 ft | 1 kts | 262° |
| 2026-05-04 16:55 | 56.08334 | 47.32195 | 571 ft | 0 kts | 262° |
| 2026-05-04 16:58 | 56.08336 | 47.32189 | 570 ft | 1 kts | 293° |
| 2026-05-04 16:59 | 56.08371 | 47.32190 | 565 ft | 5 kts | 23° |
| 2026-05-04 17:00 | 56.08554 | 47.32601 | 566 ft | 17 kts | 54° |
| 2026-05-04 17:00 | 56.08767 | 47.33297 | 570 ft | 27 kts | 72° |
| 2026-05-04 17:01 | 56.08909 | 47.34079 | 573 ft | 39 kts | 72° |
| 2026-05-04 17:01 | 56.09092 | 47.35103 | 563 ft | 47 kts | 72° |
| 2026-05-04 17:02 | 56.09286 | 47.36128 | 568 ft | 27 kts | 71° |
| 2026-05-04 17:02 | 56.09336 | 47.36484 | 548 ft | 14 kts | 92° |
| 2026-05-04 17:03 | 56.09346 | 47.36599 | 543 ft | 14 kts | 35° |
| 2026-05-04 17:03 | 56.09369 | 47.36597 | 537 ft | 0 kts | 307° |
| 2026-05-04 17:04 | 56.09366 | 47.36554 | 541 ft | 2 kts | 253° |
| 2026-05-04 17:04 | 56.09073 | 47.34972 | 567 ft | 130 kts | 251° |
| 2026-05-04 17:05 | 56.08331 | 47.31250 | 1343 ft | 162 kts | 238° |
| 2026-05-04 17:05 | 56.06311 | 47.29516 | 2352 ft | 192 kts | 173° |
| 2026-05-04 17:06 | 56.03964 | 47.32442 | 3352 ft | 217 kts | 140° |
| 2026-05-04 17:06 | 56.02823 | 47.34268 | 4051 ft | 220 kts | 144° |
| 2026-05-04 17:07 | 55.99982 | 47.34757 | 5354 ft | 217 kts | 207° |
| 2026-05-04 17:07 | 55.99055 | 47.33973 | 5811 ft | 219 kts | 207° |
| 2026-05-04 17:07 | 55.97226 | 47.32395 | 6627 ft | 225 kts | 207° |
| 2026-05-04 17:07 | 55.95809 | 47.31172 | 7250 ft | 228 kts | 207° |
| 2026-05-04 17:08 | 55.94376 | 47.29946 | 7888 ft | 232 kts | 207° |
| 2026-05-04 17:08 | 55.91437 | 47.27448 | 9184 ft | 239 kts | 206° |
| 2026-05-04 17:08 | 55.89940 | 47.26181 | 9826 ft | 242 kts | 206° |
| 2026-05-04 17:09 | 55.88403 | 47.24887 | 10429 ft | 245 kts | 206° |
| 2026-05-04 17:09 | 55.86847 | 47.23575 | 11046 ft | 248 kts | 206° |
| 2026-05-04 17:09 | 55.85277 | 47.22249 | 11667 ft | 251 kts | 206° |
| 2026-05-04 17:10 | 55.82099 | 47.19570 | 12904 ft | 256 kts | 206° |
| 2026-05-04 17:10 | 55.76967 | 47.16546 | 14351 ft | 281 kts | 184° |
| 2026-05-04 17:11 | 55.74904 | 47.16269 | 14482 ft | 303 kts | 184° |
| 2026-05-04 17:11 | 55.72787 | 47.15992 | 14604 ft | 324 kts | 184° |
| 2026-05-04 17:11 | 55.67993 | 47.15367 | 14856 ft | 363 kts | 184° |
| 2026-05-04 17:12 | 55.65401 | 47.15023 | 14985 ft | 381 kts | 184° |
| 2026-05-04 17:12 | 55.60006 | 47.14294 | 15803 ft | 396 kts | 184° |
| 2026-05-04 17:13 | 55.51628 | 47.13152 | 17336 ft | 407 kts | 184° |
| 2026-05-04 17:14 | 55.43073 | 47.11995 | 18737 ft | 418 kts | 184° |
| 2026-05-04 17:14 | 55.40146 | 47.11603 | 19192 ft | 420 kts | 184° |
| 2026-05-04 17:14 | 55.34280 | 47.10806 | 20089 ft | 425 kts | 184° |
| 2026-05-04 17:15 | 55.31349 | 47.10409 | 20523 ft | 428 kts | 184° |
| 2026-05-04 17:15 | 55.25376 | 47.09609 | 21381 ft | 433 kts | 184° |
| 2026-05-04 17:16 | 55.19333 | 47.08812 | 22224 ft | 438 kts | 184° |
| 2026-05-04 17:16 | 55.10171 | 47.07609 | 23411 ft | 445 kts | 184° |
| 2026-05-04 17:17 | 55.07083 | 47.07204 | 23740 ft | 448 kts | 184° |
| 2026-05-04 17:17 | 54.97695 | 47.05971 | 24677 ft | 455 kts | 184° |
| 2026-05-04 17:18 | 54.94522 | 47.05552 | 24990 ft | 457 kts | 184° |
| 2026-05-04 17:18 | 54.88139 | 47.04718 | 25611 ft | 461 kts | 184° |
| 2026-05-04 17:19 | 54.81756 | 47.03891 | 26213 ft | 465 kts | 184° |
| 2026-05-04 17:19 | 54.75271 | 47.03043 | 26762 ft | 470 kts | 184° |
| 2026-05-04 17:20 | 54.68730 | 47.02175 | 27324 ft | 473 kts | 185° |
| 2026-05-04 17:20 | 54.62266 | 47.00017 | 27833 ft | 477 kts | 193° |
| 2026-05-04 17:20 | 54.59037 | 46.98780 | 28107 ft | 479 kts | 193° |
| 2026-05-04 17:21 | 54.52520 | 46.96308 | 28765 ft | 479 kts | 193° |
| 2026-05-04 17:21 | 54.46023 | 46.93850 | 29517 ft | 477 kts | 192° |
| 2026-05-04 17:22 | 54.42821 | 46.92642 | 29889 ft | 477 kts | 192° |
| 2026-05-04 17:22 | 54.39574 | 46.91420 | 30217 ft | 476 kts | 192° |
| 2026-05-04 17:23 | 54.29905 | 46.87793 | 31163 ft | 473 kts | 192° |
| 2026-05-04 17:23 | 54.26721 | 46.86602 | 31490 ft | 472 kts | 192° |
| 2026-05-04 17:23 | 54.20312 | 46.84302 | 32115 ft | 470 kts | 191° |
| 2026-05-04 17:24 | 54.17056 | 46.83256 | 32432 ft | 469 kts | 190° |
| 2026-05-04 17:24 | 54.07470 | 46.80303 | 33365 ft | 467 kts | 190° |
| 2026-05-04 17:25 | 54.04277 | 46.79300 | 33688 ft | 466 kts | 191° |
| 2026-05-04 17:25 | 53.97943 | 46.77297 | 33959 ft | 467 kts | 191° |
| 2026-05-04 17:26 | 53.91552 | 46.75319 | 33950 ft | 468 kts | 190° |
| 2026-05-04 17:27 | 53.75540 | 46.70439 | 33965 ft | 466 kts | 191° |
| 2026-05-04 17:28 | 53.62849 | 46.66308 | 33962 ft | 466 kts | 192° |
| 2026-05-04 17:29 | 53.43782 | 46.60236 | 33966 ft | 464 kts | 191° |
| 2026-05-04 17:31 | 53.27940 | 46.55362 | 33977 ft | 464 kts | 191° |
| 2026-05-04 17:32 | 53.12081 | 46.50497 | 33973 ft | 463 kts | 192° |
| 2026-05-04 17:33 | 52.99465 | 46.46647 | 33972 ft | 462 kts | 192° |
| 2026-05-04 17:34 | 52.86843 | 46.42845 | 33976 ft | 461 kts | 192° |
| 2026-05-04 17:35 | 52.71091 | 46.38117 | 33990 ft | 460 kts | 192° |
| 2026-05-04 17:36 | 52.64830 | 46.36239 | 33990 ft | 459 kts | 192° |
| 2026-05-04 17:36 | 52.58560 | 46.34366 | 33981 ft | 459 kts | 192° |
| 2026-05-04 17:37 | 52.52307 | 46.32509 | 33992 ft | 458 kts | 192° |
| 2026-05-04 17:37 | 52.46045 | 46.30651 | 33987 ft | 458 kts | 192° |
| 2026-05-04 17:38 | 52.39772 | 46.28804 | 33988 ft | 457 kts | 192° |
| 2026-05-04 17:38 | 52.33531 | 46.26971 | 33871 ft | 456 kts | 192° |
| 2026-05-04 17:38 | 52.30406 | 46.26045 | 33977 ft | 459 kts | 192° |
| 2026-05-04 17:39 | 52.24095 | 46.24170 | 33989 ft | 459 kts | 192° |
| 2026-05-04 17:39 | 52.17806 | 46.22337 | 33992 ft | 458 kts | 192° |
| 2026-05-04 17:40 | 52.11583 | 46.20534 | 33992 ft | 457 kts | 192° |
| 2026-05-04 17:40 | 52.05322 | 46.18716 | 33996 ft | 457 kts | 192° |
| 2026-05-04 17:41 | 51.99048 | 46.16899 | 33997 ft | 456 kts | 192° |
| 2026-05-04 17:41 | 51.92851 | 46.15107 | 33999 ft | 455 kts | 192° |
| 2026-05-04 17:42 | 51.86627 | 46.13305 | 34000 ft | 455 kts | 192° |
| 2026-05-04 17:42 | 51.80411 | 46.11514 | 34002 ft | 455 kts | 192° |
| 2026-05-04 17:43 | 51.74158 | 46.09721 | 34003 ft | 454 kts | 192° |
| 2026-05-04 17:43 | 51.67924 | 46.07935 | 34000 ft | 454 kts | 192° |
| 2026-05-04 17:44 | 51.61712 | 46.06160 | 33994 ft | 454 kts | 192° |
| 2026-05-04 17:44 | 51.55569 | 46.03914 | 33987 ft | 451 kts | 202° |
| 2026-05-04 17:45 | 51.49915 | 45.99749 | 33987 ft | 450 kts | 207° |
| 2026-05-04 17:45 | 51.44271 | 45.95427 | 33983 ft | 449 kts | 207° |
| 2026-05-04 17:46 | 51.38627 | 45.91136 | 33978 ft | 449 kts | 207° |
| 2026-05-04 17:46 | 51.32964 | 45.86851 | 33984 ft | 449 kts | 207° |
| 2026-05-04 17:47 | 51.27347 | 45.82623 | 33983 ft | 449 kts | 207° |
| 2026-05-04 17:47 | 51.21700 | 45.78365 | 33993 ft | 449 kts | 207° |
| 2026-05-04 17:48 | 51.16061 | 45.74117 | 33996 ft | 448 kts | 207° |
| 2026-05-04 17:48 | 51.10421 | 45.69886 | 33997 ft | 448 kts | 206° |
| 2026-05-04 17:49 | 51.04791 | 45.65684 | 34001 ft | 448 kts | 205° |
| 2026-05-04 17:49 | 50.98888 | 45.62893 | 33997 ft | 449 kts | 194° |
| 2026-05-04 17:50 | 50.92815 | 45.60726 | 34000 ft | 449 kts | 194° |
| 2026-05-04 17:50 | 50.86725 | 45.58549 | 34003 ft | 449 kts | 194° |
| 2026-05-04 17:51 | 50.80724 | 45.56391 | 34008 ft | 449 kts | 194° |
| 2026-05-04 17:51 | 50.74629 | 45.54226 | 34013 ft | 448 kts | 194° |
| 2026-05-04 17:52 | 50.68548 | 45.52113 | 34017 ft | 448 kts | 194° |
| 2026-05-04 17:52 | 50.62447 | 45.49992 | 34019 ft | 447 kts | 194° |
| 2026-05-04 17:53 | 50.56400 | 45.47890 | 34018 ft | 447 kts | 194° |
| 2026-05-04 17:53 | 50.50327 | 45.45796 | 34019 ft | 447 kts | 194° |
| 2026-05-04 17:54 | 50.44285 | 45.43717 | 34017 ft | 446 kts | 194° |
| 2026-05-04 17:54 | 50.38258 | 45.41637 | 34016 ft | 446 kts | 194° |
| 2026-05-04 17:55 | 50.32243 | 45.39572 | 34016 ft | 445 kts | 194° |
| 2026-05-04 17:55 | 50.26229 | 45.37507 | 34014 ft | 445 kts | 194° |
| 2026-05-04 17:56 | 50.20180 | 45.35439 | 34021 ft | 445 kts | 194° |
| 2026-05-04 17:56 | 50.14133 | 45.33389 | 34015 ft | 445 kts | 194° |
| 2026-05-04 17:57 | 50.08137 | 45.31360 | 34026 ft | 445 kts | 194° |
| 2026-05-04 17:57 | 50.02077 | 45.29300 | 34022 ft | 445 kts | 195° |
| 2026-05-04 17:58 | 49.96090 | 45.26907 | 34018 ft | 444 kts | 198° |
| 2026-05-04 17:58 | 49.90213 | 45.24194 | 34021 ft | 444 kts | 199° |
| 2026-05-04 17:59 | 49.84278 | 45.21458 | 34026 ft | 444 kts | 199° |
| 2026-05-04 18:00 | 49.75358 | 45.17545 | 34024 ft | 444 kts | 198° |
| 2026-05-04 18:00 | 49.69409 | 45.14980 | 34015 ft | 444 kts | 198° |
| 2026-05-04 18:01 | 49.63454 | 45.12392 | 34019 ft | 444 kts | 198° |
| 2026-05-04 18:01 | 49.57559 | 45.09824 | 34018 ft | 444 kts | 198° |
| 2026-05-04 18:02 | 49.48604 | 45.05962 | 34025 ft | 443 kts | 198° |
| 2026-05-04 18:02 | 49.42719 | 45.03434 | 34021 ft | 443 kts | 198° |
| 2026-05-04 18:03 | 49.36767 | 45.00894 | 34025 ft | 443 kts | 198° |
| 2026-05-04 18:03 | 49.30850 | 44.98371 | 34022 ft | 443 kts | 198° |
| 2026-05-04 18:04 | 49.24905 | 44.95828 | 34017 ft | 443 kts | 198° |
| 2026-05-04 18:05 | 49.16007 | 44.92042 | 34020 ft | 443 kts | 198° |
| 2026-05-04 18:05 | 49.10061 | 44.89516 | 34015 ft | 443 kts | 198° |
| 2026-05-04 18:06 | 49.01152 | 44.85742 | 34019 ft | 443 kts | 198° |
| 2026-05-04 18:06 | 48.95189 | 44.83229 | 34018 ft | 444 kts | 198° |
| 2026-05-04 18:07 | 48.89281 | 44.80746 | 34023 ft | 444 kts | 197° |
| 2026-05-04 18:07 | 48.83290 | 44.78238 | 34019 ft | 444 kts | 198° |
| 2026-05-04 18:08 | 48.77442 | 44.75480 | 34015 ft | 443 kts | 200° |
| 2026-05-04 18:08 | 48.71557 | 44.72825 | 34013 ft | 445 kts | 188° |
| 2026-05-04 18:09 | 48.65449 | 44.74026 | 34008 ft | 450 kts | 161° |
| 2026-05-04 18:09 | 48.59576 | 44.77497 | 34002 ft | 451 kts | 160° |
| 2026-05-04 18:10 | 48.53780 | 44.81003 | 34004 ft | 451 kts | 160° |
| 2026-05-04 18:10 | 48.47959 | 44.84508 | 34010 ft | 451 kts | 160° |
| 2026-05-04 18:11 | 48.42111 | 44.87996 | 34016 ft | 451 kts | 160° |
| 2026-05-04 18:11 | 48.36293 | 44.91436 | 34022 ft | 450 kts | 160° |
| 2026-05-04 18:12 | 48.30456 | 44.94891 | 34026 ft | 449 kts | 159° |
| 2026-05-04 18:12 | 48.24689 | 44.98298 | 34031 ft | 448 kts | 159° |
| 2026-05-04 18:13 | 48.18888 | 45.01719 | 34025 ft | 447 kts | 159° |
| 2026-05-04 18:14 | 48.10219 | 45.06809 | 34015 ft | 447 kts | 159° |
| 2026-05-04 18:14 | 48.04428 | 45.10206 | 34016 ft | 446 kts | 159° |
| 2026-05-04 18:15 | 47.93292 | 45.18259 | 34014 ft | 446 kts | 154° |
| 2026-05-04 18:16 | 47.87747 | 45.22409 | 34016 ft | 445 kts | 154° |
| 2026-05-04 18:16 | 47.82227 | 45.26531 | 34015 ft | 444 kts | 154° |
| 2026-05-04 18:17 | 47.73930 | 45.32711 | 34012 ft | 444 kts | 154° |
| 2026-05-04 18:18 | 47.65640 | 45.38875 | 34011 ft | 443 kts | 154° |
| 2026-05-04 18:18 | 47.60167 | 45.42929 | 34011 ft | 443 kts | 154° |
| 2026-05-04 18:19 | 47.51904 | 45.49015 | 34013 ft | 442 kts | 154° |
| 2026-05-04 18:19 | 47.46380 | 45.53078 | 34017 ft | 442 kts | 154° |
| 2026-05-04 18:20 | 47.40883 | 45.57123 | 34021 ft | 441 kts | 154° |
| 2026-05-04 18:20 | 47.35419 | 45.61119 | 34022 ft | 441 kts | 154° |
| 2026-05-04 18:21 | 47.29945 | 45.65123 | 34026 ft | 440 kts | 154° |
| 2026-05-04 18:21 | 47.24457 | 45.69122 | 34026 ft | 439 kts | 154° |
| 2026-05-04 18:22 | 47.19008 | 45.73091 | 34030 ft | 438 kts | 153° |
| 2026-05-04 18:22 | 47.13573 | 45.77068 | 34030 ft | 437 kts | 153° |
| 2026-05-04 18:23 | 47.08099 | 45.81063 | 34033 ft | 436 kts | 153° |
| 2026-05-04 18:23 | 47.02661 | 45.85008 | 34028 ft | 435 kts | 153° |
| 2026-05-04 18:24 | 46.97274 | 45.88910 | 34024 ft | 435 kts | 153° |
| 2026-05-04 18:24 | 46.91860 | 45.92827 | 34013 ft | 435 kts | 153° |
| 2026-05-04 18:25 | 46.86422 | 45.96755 | 34007 ft | 435 kts | 153° |
| 2026-05-04 18:25 | 46.81008 | 46.00655 | 34005 ft | 435 kts | 153° |
| 2026-05-04 18:26 | 46.75575 | 46.04546 | 33999 ft | 435 kts | 153° |
| 2026-05-04 18:26 | 46.70156 | 46.08424 | 33994 ft | 435 kts | 153° |
| 2026-05-04 18:27 | 46.64720 | 46.12311 | 33993 ft | 436 kts | 153° |
| 2026-05-04 18:27 | 46.60158 | 46.15574 | 33990 ft | 436 kts | 153° |
| 2026-05-04 18:28 | 46.54751 | 46.19431 | 33983 ft | 436 kts | 153° |
| 2026-05-04 18:28 | 46.49297 | 46.23302 | 33983 ft | 436 kts | 154° |
| 2026-05-04 18:29 | 46.43847 | 46.27152 | 33985 ft | 436 kts | 154° |
| 2026-05-04 18:29 | 46.38393 | 46.31009 | 33977 ft | 436 kts | 154° |
| 2026-05-04 18:30 | 46.30235 | 46.36758 | 33977 ft | 436 kts | 154° |
| 2026-05-04 18:31 | 46.24782 | 46.40596 | 33967 ft | 436 kts | 154° |
| 2026-05-04 18:31 | 46.19338 | 46.44426 | 33964 ft | 436 kts | 154° |
| 2026-05-04 18:32 | 46.13881 | 46.48243 | 33962 ft | 436 kts | 154° |
| 2026-05-04 18:32 | 46.08398 | 46.52062 | 33962 ft | 436 kts | 154° |
| 2026-05-04 18:33 | 46.02936 | 46.55886 | 33955 ft | 437 kts | 154° |
| 2026-05-04 18:33 | 45.97485 | 46.59701 | 33951 ft | 437 kts | 154° |
| 2026-05-04 18:34 | 45.92002 | 46.63521 | 33952 ft | 437 kts | 155° |
| 2026-05-04 18:34 | 45.86574 | 46.67296 | 33944 ft | 437 kts | 155° |
| 2026-05-04 18:35 | 45.81110 | 46.71093 | 33943 ft | 437 kts | 155° |
| 2026-05-04 18:35 | 45.75816 | 46.74772 | 33939 ft | 437 kts | 155° |
| 2026-05-04 18:36 | 45.70184 | 46.78674 | 33936 ft | 437 kts | 155° |
| 2026-05-04 18:36 | 45.64735 | 46.82437 | 33933 ft | 437 kts | 155° |
| 2026-05-04 18:37 | 45.59277 | 46.86200 | 33932 ft | 437 kts | 155° |
| 2026-05-04 18:37 | 45.53786 | 46.89973 | 33931 ft | 437 kts | 155° |
| 2026-05-04 18:38 | 45.48287 | 46.93738 | 33929 ft | 437 kts | 155° |
| 2026-05-04 18:38 | 45.42830 | 46.97488 | 33930 ft | 437 kts | 155° |
| 2026-05-04 18:39 | 45.37371 | 47.01234 | 33933 ft | 437 kts | 155° |
| 2026-05-04 18:39 | 45.31899 | 47.04978 | 33930 ft | 437 kts | 156° |
| 2026-05-04 18:40 | 45.26433 | 47.08708 | 33934 ft | 436 kts | 156° |
| 2026-05-04 18:40 | 45.20942 | 47.12448 | 33928 ft | 436 kts | 156° |
| 2026-05-04 18:41 | 45.15511 | 47.16132 | 33929 ft | 436 kts | 156° |
| 2026-05-04 18:41 | 45.10043 | 47.19830 | 33931 ft | 436 kts | 156° |
| 2026-05-04 18:42 | 45.04466 | 47.23141 | 33929 ft | 433 kts | 167° |
| 2026-05-04 18:42 | 44.98589 | 47.24520 | 33927 ft | 431 kts | 173° |
| 2026-05-04 18:43 | 44.92612 | 47.25685 | 33925 ft | 430 kts | 173° |
| 2026-05-04 18:43 | 44.86680 | 47.26850 | 33927 ft | 430 kts | 174° |
| 2026-05-04 18:44 | 44.80790 | 47.28011 | 33927 ft | 430 kts | 174° |
| 2026-05-04 18:44 | 44.74877 | 47.29163 | 33930 ft | 430 kts | 174° |
| 2026-05-04 18:45 | 44.68984 | 47.30293 | 33924 ft | 429 kts | 174° |
| 2026-05-04 18:45 | 44.65995 | 47.30869 | 33615 ft | 430 kts | 173° |
| 2026-05-04 18:45 | 44.63044 | 47.31444 | 33759 ft | 433 kts | 172° |
| 2026-05-04 18:45 | 44.60000 | 47.32035 | 33969 ft | 436 kts | 172° |
| 2026-05-04 18:46 | 44.56972 | 47.32619 | 34010 ft | 443 kts | 172° |
| 2026-05-04 18:46 | 44.50823 | 47.33801 | 34011 ft | 453 kts | 172° |
| 2026-05-04 18:47 | 44.44559 | 47.34974 | 34009 ft | 454 kts | 173° |
| 2026-05-04 18:47 | 44.38315 | 47.36121 | 34010 ft | 454 kts | 173° |
| 2026-05-04 18:48 | 44.32035 | 47.37258 | 34009 ft | 454 kts | 173° |
| 2026-05-04 18:48 | 44.25794 | 47.38394 | 34008 ft | 454 kts | 173° |
| 2026-05-04 18:49 | 44.19531 | 47.39540 | 34006 ft | 454 kts | 173° |
| 2026-05-04 18:49 | 44.13256 | 47.40689 | 33808 ft | 455 kts | 173° |
| 2026-05-04 18:49 | 44.10118 | 47.41265 | 33559 ft | 455 kts | 173° |
| 2026-05-04 18:50 | 44.06960 | 47.41841 | 33307 ft | 455 kts | 173° |
| 2026-05-04 18:50 | 44.03866 | 47.42401 | 33062 ft | 456 kts | 173° |
| 2026-05-04 18:50 | 44.00673 | 47.42979 | 32809 ft | 456 kts | 173° |
| 2026-05-04 18:50 | 43.97568 | 47.43543 | 32563 ft | 457 kts | 173° |
| 2026-05-04 18:51 | 43.94389 | 47.44121 | 32310 ft | 457 kts | 173° |
| 2026-05-04 18:51 | 43.91269 | 47.44686 | 32064 ft | 458 kts | 173° |
| 2026-05-04 18:51 | 43.88075 | 47.45263 | 31812 ft | 458 kts | 173° |
| 2026-05-04 18:51 | 43.84956 | 47.45827 | 31253 ft | 457 kts | 173° |
| 2026-05-04 18:52 | 43.81820 | 47.46395 | 30405 ft | 458 kts | 173° |
| 2026-05-04 18:52 | 43.78650 | 47.46972 | 29522 ft | 460 kts | 173° |
| 2026-05-04 18:52 | 43.75411 | 47.47560 | 28598 ft | 462 kts | 173° |
| 2026-05-04 18:52 | 43.72271 | 47.48126 | 27813 ft | 461 kts | 173° |
| 2026-05-04 18:53 | 43.69124 | 47.48692 | 27164 ft | 456 kts | 173° |
| 2026-05-04 18:53 | 43.65991 | 47.49250 | 26490 ft | 451 kts | 173° |
| 2026-05-04 18:53 | 43.62882 | 47.49801 | 25836 ft | 446 kts | 173° |
| 2026-05-04 18:53 | 43.59816 | 47.50417 | 25191 ft | 442 kts | 171° |
| 2026-05-04 18:54 | 43.56802 | 47.51190 | 24555 ft | 438 kts | 168° |
| 2026-05-04 18:54 | 43.53883 | 47.52050 | 23930 ft | 434 kts | 167° |
| 2026-05-04 18:54 | 43.50970 | 47.52959 | 23635 ft | 422 kts | 167° |
| 2026-05-04 18:54 | 43.48113 | 47.53849 | 23345 ft | 410 kts | 167° |
| 2026-05-04 18:55 | 43.45379 | 47.54676 | 22868 ft | 405 kts | 168° |
| 2026-05-04 18:55 | 43.39919 | 47.56252 | 21827 ft | 398 kts | 168° |
| 2026-05-04 18:55 | 43.37218 | 47.57006 | 21314 ft | 395 kts | 169° |
| 2026-05-04 18:56 | 43.34548 | 47.57746 | 20799 ft | 391 kts | 169° |
| 2026-05-04 18:56 | 43.31900 | 47.58482 | 20317 ft | 388 kts | 169° |
| 2026-05-04 18:56 | 43.29266 | 47.59221 | 20068 ft | 378 kts | 168° |
| 2026-05-04 18:56 | 43.26713 | 47.59941 | 19677 ft | 373 kts | 168° |
| 2026-05-04 18:57 | 43.24183 | 47.60658 | 19233 ft | 370 kts | 168° |
| 2026-05-04 18:57 | 43.21664 | 47.61366 | 18784 ft | 367 kts | 168° |
| 2026-05-04 18:57 | 43.19197 | 47.62059 | 18335 ft | 365 kts | 168° |
| 2026-05-04 18:57 | 43.16727 | 47.62754 | 17901 ft | 363 kts | 168° |
| 2026-05-04 18:58 | 43.14307 | 47.63690 | 17466 ft | 360 kts | 159° |
| 2026-05-04 18:58 | 43.12062 | 47.65184 | 17036 ft | 358 kts | 149° |
| 2026-05-04 18:58 | 43.10047 | 47.67182 | 16591 ft | 356 kts | 139° |
| 2026-05-04 18:58 | 43.08321 | 47.69572 | 16158 ft | 354 kts | 133° |
| 2026-05-04 18:59 | 43.06657 | 47.72060 | 15734 ft | 352 kts | 133° |
| 2026-05-04 18:59 | 43.05012 | 47.74509 | 15321 ft | 350 kts | 133° |
| 2026-05-04 18:59 | 43.03374 | 47.76940 | 14886 ft | 348 kts | 133° |
| 2026-05-04 18:59 | 43.01730 | 47.79378 | 14461 ft | 345 kts | 133° |
| 2026-05-04 19:00 | 43.00109 | 47.81783 | 14046 ft | 343 kts | 133° |
| 2026-05-04 19:00 | 42.98490 | 47.84182 | 13632 ft | 341 kts | 133° |
| 2026-05-04 19:00 | 42.96920 | 47.86509 | 13338 ft | 335 kts | 133° |
| 2026-05-04 19:00 | 42.95355 | 47.88825 | 13098 ft | 328 kts | 133° |
| 2026-05-04 19:01 | 42.93816 | 47.91099 | 12737 ft | 325 kts | 133° |
| 2026-05-04 19:01 | 42.92287 | 47.93353 | 12366 ft | 323 kts | 133° |
| 2026-05-04 19:01 | 42.90745 | 47.95597 | 11973 ft | 321 kts | 136° |
| 2026-05-04 19:01 | 42.88998 | 47.97456 | 11602 ft | 319 kts | 149° |
| 2026-05-04 19:02 | 42.87032 | 47.98803 | 11214 ft | 317 kts | 155° |
| 2026-05-04 19:02 | 42.85034 | 48.00079 | 10818 ft | 315 kts | 155° |
| 2026-05-04 19:02 | 42.83078 | 48.01338 | 10443 ft | 314 kts | 155° |
| 2026-05-04 19:02 | 42.81096 | 48.02618 | 10045 ft | 312 kts | 155° |
| 2026-05-04 19:03 | 42.79115 | 48.03895 | 9649 ft | 310 kts | 155° |
| 2026-05-04 19:03 | 42.77197 | 48.05130 | 9246 ft | 308 kts | 155° |
| 2026-05-04 19:03 | 42.75260 | 48.06378 | 8861 ft | 307 kts | 155° |
| 2026-05-04 19:03 | 42.73338 | 48.07613 | 8457 ft | 305 kts | 155° |
| 2026-05-04 19:04 | 42.71434 | 48.08831 | 8063 ft | 303 kts | 155° |
| 2026-05-04 19:04 | 42.69544 | 48.10037 | 7654 ft | 301 kts | 155° |
| 2026-05-04 19:04 | 42.67629 | 48.11260 | 7237 ft | 299 kts | 155° |
| 2026-05-04 19:04 | 42.65743 | 48.12294 | 6831 ft | 297 kts | 167° |
| 2026-05-04 19:05 | 42.63701 | 48.12561 | 6437 ft | 293 kts | 179° |
| 2026-05-04 19:05 | 42.61700 | 48.12643 | 6312 ft | 281 kts | 179° |
| 2026-05-04 19:05 | 42.59797 | 48.12718 | 6189 ft | 269 kts | 179° |
| 2026-05-04 19:05 | 42.57971 | 48.12673 | 6084 ft | 255 kts | 190° |
| 2026-05-04 19:06 | 42.56327 | 48.12045 | 6085 ft | 239 kts | 199° |
| 2026-05-04 19:06 | 42.54752 | 48.11337 | 6089 ft | 236 kts | 199° |
| 2026-05-04 19:06 | 42.53211 | 48.10654 | 6092 ft | 235 kts | 198° |
| 2026-05-04 19:06 | 42.51663 | 48.09969 | 6094 ft | 235 kts | 198° |
| 2026-05-04 19:07 | 42.50184 | 48.09068 | 6096 ft | 234 kts | 214° |
| 2026-05-04 19:07 | 42.48890 | 48.07725 | 6102 ft | 234 kts | 219° |
| 2026-05-04 19:07 | 42.47604 | 48.06349 | 6103 ft | 234 kts | 219° |
| 2026-05-04 19:07 | 42.46329 | 48.04991 | 6092 ft | 234 kts | 218° |
| 2026-05-04 19:08 | 42.45049 | 48.03629 | 6101 ft | 234 kts | 220° |
| 2026-05-04 19:08 | 42.43954 | 48.01995 | 6100 ft | 234 kts | 238° |
| 2026-05-04 19:08 | 42.43110 | 48.00150 | 6097 ft | 234 kts | 238° |
| 2026-05-04 19:08 | 42.42251 | 47.98276 | 6103 ft | 234 kts | 238° |
| 2026-05-04 19:09 | 42.41379 | 47.96385 | 6099 ft | 234 kts | 238° |
| 2026-05-04 19:09 | 42.40542 | 47.94524 | 6090 ft | 234 kts | 244° |
| 2026-05-04 19:09 | 42.40017 | 47.92459 | 6098 ft | 234 kts | 258° |
| 2026-05-04 19:09 | 42.39686 | 47.90304 | 6096 ft | 234 kts | 258° |
| 2026-05-04 19:10 | 42.39352 | 47.88149 | 6095 ft | 234 kts | 258° |
| 2026-05-04 19:10 | 42.39018 | 47.85998 | 6097 ft | 234 kts | 258° |
| 2026-05-04 19:10 | 42.38746 | 47.83851 | 6093 ft | 234 kts | 269° |
| 2026-05-04 19:10 | 42.39026 | 47.81666 | 5995 ft | 233 kts | 294° |
| 2026-05-04 19:11 | 42.39964 | 47.79967 | 5671 ft | 232 kts | 323° |
| 2026-05-04 19:11 | 42.41419 | 47.79057 | 5583 ft | 232 kts | 350° |
| 2026-05-04 19:11 | 42.43032 | 47.78903 | 5596 ft | 235 kts | 357° |
| 2026-05-04 19:11 | 42.44662 | 47.78813 | 5599 ft | 235 kts | 357° |
| 2026-05-04 19:12 | 42.46302 | 47.78722 | 5598 ft | 235 kts | 357° |
| 2026-05-04 19:12 | 42.49586 | 47.78534 | 5598 ft | 235 kts | 357° |
| 2026-05-04 19:12 | 42.51225 | 47.78523 | 5597 ft | 235 kts | 4° |
| 2026-05-04 19:13 | 42.52828 | 47.78822 | 5511 ft | 236 kts | 12° |
| 2026-05-04 19:13 | 42.54417 | 47.79334 | 5385 ft | 235 kts | 13° |
| 2026-05-04 19:13 | 42.56022 | 47.79842 | 5027 ft | 238 kts | 12° |
| 2026-05-04 19:13 | 42.57653 | 47.80353 | 4610 ft | 242 kts | 12° |
| 2026-05-04 19:14 | 42.59263 | 47.80857 | 4505 ft | 229 kts | 12° |
| 2026-05-04 19:14 | 42.60745 | 47.81320 | 4463 ft | 208 kts | 11° |
| 2026-05-04 19:14 | 42.62086 | 47.81374 | 4356 ft | 181 kts | 350° |
| 2026-05-04 19:14 | 42.63213 | 47.80875 | 4144 ft | 167 kts | 332° |
| 2026-05-04 19:15 | 42.64169 | 47.80076 | 3905 ft | 155 kts | 327° |
| 2026-05-04 19:15 | 42.65066 | 47.79316 | 3628 ft | 147 kts | 327° |
| 2026-05-04 19:15 | 42.65920 | 47.78596 | 3307 ft | 146 kts | 327° |
| 2026-05-04 19:15 | 42.66782 | 47.77868 | 2970 ft | 145 kts | 327° |
| 2026-05-04 19:16 | 42.67635 | 47.77148 | 2637 ft | 145 kts | 327° |
| 2026-05-04 19:16 | 42.68481 | 47.76433 | 2515 ft | 143 kts | 327° |
| 2026-05-04 19:16 | 42.69334 | 47.75713 | 2508 ft | 145 kts | 327° |
| 2026-05-04 19:16 | 42.70192 | 47.74988 | 2503 ft | 145 kts | 327° |
| 2026-05-04 19:17 | 42.71041 | 47.74270 | 2499 ft | 145 kts | 327° |
| 2026-05-04 19:17 | 42.71909 | 47.73535 | 2248 ft | 147 kts | 327° |
| 2026-05-04 19:17 | 42.72778 | 47.72799 | 1931 ft | 145 kts | 327° |
| 2026-05-04 19:17 | 42.73617 | 47.72088 | 1698 ft | 144 kts | 327° |
| 2026-05-04 19:18 | 42.74463 | 47.71371 | 1479 ft | 143 kts | 327° |
| 2026-05-04 19:18 | 42.75304 | 47.70658 | 1293 ft | 142 kts | 327° |
| 2026-05-04 19:18 | 42.76144 | 47.69945 | 1100 ft | 142 kts | 327° |
| 2026-05-04 19:18 | 42.76981 | 47.69235 | 912 ft | 141 kts | 327° |
| 2026-05-04 19:19 | 42.77799 | 47.68541 | 730 ft | 141 kts | 327° |
| 2026-05-04 19:19 | 42.78628 | 47.67837 | 540 ft | 141 kts | 327° |
| 2026-05-04 19:19 | 42.79462 | 47.67128 | 354 ft | 140 kts | 327° |
| 2026-05-04 19:19 | 42.80282 | 47.66431 | 167 ft | 140 kts | 327° |
| 2026-05-04 19:20 | 42.81107 | 47.65730 | 27 ft | 134 kts | 328° |
| 2026-05-04 19:20 | 42.81823 | 47.65120 | 18 ft | 110 kts | 328° |
| 2026-05-04 19:20 | 42.82316 | 47.64701 | 20 ft | 93 kts | 328° |